Aviation Digital Data Service (ADDS)

Output produced by METARs form (0053 UTC 22 September 2017)
found at http://www.aviationweather.gov/adds/metars/
 
KEAR 212320Z 2200/2224 15018G25KT P6SM FEW250 
     FM220200 16014KT P6SM SKC WS010/19050KT 
     FM221300 18015G22KT P6SM FEW250 
     FM221800 17023G32KT P6SM FEW100 SCT250
       
KEAT 212329Z 2200/2224 29009KT P6SM -SHRA BKN060 OVC090 
     FM220200 30007KT P6SM BKN080 BKN150 
     FM222100 14005KT P6SM SCT080 BKN150
       
KEAU 212334Z 2200/2224 12008KT P6SM SKC 
     FM220200 14008KT P6SM SCT100 
     FM220900 16005KT 4SM BR SCT250 
     FM221400 18009KT P6SM SCT250 
     FM221800 17009G17KT P6SM SKC 
     FM222000 17011KT P6SM SKC
       
KECG 212320Z 2200/2224 08005KT P6SM SKC 
     FM220600 16004KT P6SM SKC 
     FM221300 31004KT P6SM SKC 
     FM221900 01004KT P6SM SCT100
       
TAF KEDW 211801Z 2118/2224 24015G25KT 9999 BKN050 510009 QNH2977INS 
     TEMPO 2118/2121 25025G35KT 530009 
     BECMG 2120/2121 27015G25KT 9999 SCT050 510009 QNH2978INS 
     TEMPO 2121/2201 27025G35KT 530009 
     BECMG 2201/2202 26015G25KT 9999 FEW050 510009 QNH2979INS 
     BECMG 2202/2203 24012G18KT 9999 SKC QNH2980INS 
     BECMG 2207/2208 VRB06KT 9999 SKC QNH2985INS 
     BECMG 2223/2224 25012G18KT 9999 SKC QNH2979INS TX24/2122Z TN08/2214Z
       
KEED 212320Z 2200/2224 23020G28KT P6SM FEW100 
     FM220300 27015G23KT P6SM SKC 
     FM221200 VRB06KT P6SM SKC
       
KEET 212329Z 2200/2224 00000KT P6SM SCT250 
     TEMPO 2209/2213 3SM BR SCT001 
     FM221500 12003KT P6SM SCT100
       
TAF AMD KEFD 212112Z 2121/2302 14009KT 8000 -SHRA BKN020 QNH2990INS 
     TEMPO 2121/2123 VRB10G15KT 4800 -TSRA BKN025CB BKN120 
     BECMG 2123/2124 13006KT 9999 NSW SCT020 SCT100 QNH2990INS 
     BECMG 2208/2209 13004KT 4800 BR BKN015 QNH2992INS 
     BECMG 2214/2215 12009KT 9999 NSW SCT035 QNH2986INS TX31/2219Z TN23/2212Z
       
KEGE 212332Z 2200/2224 25019G25KT P6SM FEW130 
     FM220400 17010KT P6SM SKC WS020/21030KT 
     FM220800 20009KT P6SM FEW130 FEW250 WS020/21030KT 
     FM221300 16009KT P6SM FEW100 SCT200 WS020/22030KT 
     FM221700 23017G26KT P6SM FEW080 SCT110 AMD LTD TO CLD VIS AND WIND 2201/2213
       
TAF KEGI 211700Z 2117/2223 16006KT 9999 VCSH BKN030 BKN100 BKN200 QNH2999INS 
     TEMPO 2118/2121 19015G25KT 8000 -TSRA BKN025CB BKN120 BKN250 
     BECMG 2122/2123 26005KT 9999 NSW SCT030 SCT120 BKN250 QNH2992INS 
     BECMG 2204/2205 VRB03KT 9999 FEW025 SCT090 BKN250 QNH2995INS 
     BECMG 2213/2214 04006KT 9999 FEW030 SCT100 BKN250 QNH2997INS 
     BECMG 2217/2218 09009KT 9999 SCT030 BKN100 BKN250 QNH2992INS TX32/2118Z TN21/2211Z FCST BY USAF WX MET TECH
       
KEKN 212339Z 2200/2224 34005KT P6SM SKC 
     FM220300 00000KT 4SM BR FEW250 
     TEMPO 2203/2205 2SM BR 
     FM220500 00000KT 1/4SM FG VV002 
     FM221230 00000KT 3SM BR BKN002 
     FM221300 00000KT P6SM FEW040
       
KZZV 212320Z 2200/2224 VRB02KT P6SM SKC 
     FM220500 00000KT 5SM BR SKC 
     FM220700 00000KT 2SM BR SKC 
     TEMPO 2207/2211 1/2SM FG VV001 
     FM221400 VRB03KT P6SM SKC
       
KELP 212322Z 2200/2224 21010G17KT P6SM SCT100 
     FM220300 26008KT P6SM SCT080 SCT200 
     FM221600 23009KT P6SM SCT090 SCT120 SCT250
       
KELY 212334Z 2200/2224 35006KT 5SM -SN SCT008 BKN015 OVC025 
     TEMPO 2200/2203 1/2SM SN FG OVC008 
     FM220300 01007KT 6SM -SHSN BKN020 OVC070 
     FM221000 02006KT P6SM SCT030 OVC130 
     FM221900 02008KT P6SM VCSH SCT030 BKN050
       
KEKO 212334Z 2200/2224 36009KT P6SM -SHRA BKN012 OVC015 
     FM220800 VRB04KT P6SM VCSH BKN040 BKN080 
     FM221200 VRB04KT P6SM SCT040 BKN080 
     FM222100 27006KT P6SM VCSH SCT040 BKN060
       
TAF AMD KEND 220000Z 2200/2224 17015G25KT 9999 FEW060 FEW250 QNH2979INS 
     BECMG 2211/2212 16012KT 9999 SKC QNH2989INS 
     BECMG 2217/2218 19015G20KT 9999 FEW030 QNH2987INS TX32/2200Z TN23/2210Z LAST NO AMDS AFT 2200 NEXT 2210
       
KENV 212340Z 2200/2224 31008KT P6SM -SHRA SCT025 BKN040 
     FM221500 08006KT P6SM VCSH SCT040 BKN080
       
KENW 212320Z 2200/2224 12005KT P6SM BKN250 
     FM220600 19004KT P6SM FEW250 
     FM221500 19011KT P6SM FEW250
       
KERI 212324Z 2200/2224 08005KT P6SM SKC 
     FM220700 14005KT P6SM FEW250 
     FM221400 36009KT P6SM FEW250 
     FM222200 04005KT P6SM FEW250
       
KEUG 212332Z 2200/2224 25006KT P6SM BKN035 BKN050 BKN100 
     FM220500 15003KT P6SM SCT030 BKN050 
     FM221200 VRB03KT P6SM OVC018 
     FM221700 VRB03KT P6SM BKN022 BKN040 
     FM221900 35005KT P6SM SCT035
       
KEUL 212330Z 2200/2224 31011KT P6SM SCT070 BKN100 
     FM221000 30010KT P6SM VCSH OVC050 
     FM221500 30009KT P6SM -SHRA BKN030 OVC050
       
KEVV 212330Z 2200/2224 15003KT P6SM SKC 
     TEMPO 2211/2213 3SM BR 
     FM221400 10005KT P6SM FEW035
       
KEVW 220035Z 2201/2224 19011G17KT P6SM -SHRA SCT030 BKN050 
     FM220500 28007KT 5SM -RASN SCT015 BKN030 
     FM221200 25009KT 6SM -SHSN SCT015 BKN030 
     FM221800 25011G17KT 6SM -SHSN SCT020 BKN050
       
KEWN 212358Z 2200/2224 19003KT P6SM SKC 
     FM220300 00000KT 3SM BR SKC 
     FM220600 00000KT 2SM BR SCT005 
     TEMPO 2208/2212 1SM BR BKN005 
     FM221300 VRB04KT P6SM SCT050
       
KEWR 212332Z 2200/2306 36010KT P6SM SCT150 BKN250 
     FM221400 36014G20KT P6SM SCT040 BKN150 
     FM230000 36010KT P6SM SCT040 BKN150
       
KEYW 212334Z 2200/2224 02006KT P6SM FEW025 
     FM221500 03009KT P6SM FEW025